Time;durP1;ratioP1;P1;durP2;ratioP2;P2;SDS_P1;SDS_P2;PMS_P1;PMS_P2;Temp;Humidity;BMP_temperature;BMP_pressure;BME280_temperature;BME280_humidity;BME280_pressure;Samples;Min_cycle;Max_cycle;Signal;HPM_P1;HPM_P2
2022/09/14 00:01:14;;;;;;;18.53;13.33;;;18.60;89.80;;;;;;4986989;28;20519;-48
2022/09/14 00:03:53;;;;;;;28.27;15.77;;;18.60;89.80;;;;;;4999878;28;20468;-48
2022/09/14 00:06:20;;;;;;;19.90;14.83;;;18.60;89.80;;;;;;5001552;28;20515;-48
2022/09/14 00:08:50;;;;;;;20.87;15.70;;;18.60;89.80;;;;;;5003943;28;20556;-48
2022/09/14 00:11:17;;;;;;;23.57;15.53;;;18.50;89.80;;;;;;4987055;28;20492;-48
2022/09/14 00:13:45;;;;;;;25.33;17.73;;;18.40;89.80;;;;;;4996212;28;21107;-48
2022/09/14 00:16:36;;;;;;;23.53;17.03;;;18.30;89.80;;;;;;4988062;28;20913;-48
2022/09/14 00:19:06;;;;;;;23.50;16.70;;;18.30;89.80;;;;;;5002842;28;20460;-49
2022/09/14 00:21:35;;;;;;;24.33;16.93;;;18.20;89.80;;;;;;5003457;28;20527;-48
2022/09/14 00:24:03;;;;;;;22.47;18.17;;;18.30;89.80;;;;;;5002333;28;20464;-48
2022/09/14 00:26:30;;;;;;;22.30;17.70;;;18.30;89.80;;;;;;5001467;28;20468;-48
2022/09/14 00:29:03;;;;;;;24.93;17.33;;;18.30;89.80;;;;;;5000878;28;20457;-48
2022/09/14 00:31:32;;;;;;;24.83;18.50;;;18.40;89.80;;;;;;4990751;28;20530;-48
2022/09/14 00:34:01;;;;;;;23.27;18.57;;;18.40;89.80;;;;;;4999446;28;20494;-49
2022/09/14 00:36:29;;;;;;;25.83;17.93;;;18.40;89.80;;;;;;5001215;28;20510;-49
2022/09/14 00:38:56;;;;;;;26.33;19.50;;;18.30;89.80;;;;;;5001517;28;20511;-48
2022/09/14 00:41:35;;;;;;;27.43;19.03;;;18.30;89.80;;;;;;5000851;28;20825;-48
2022/09/14 00:44:25;;;;;;;31.13;18.97;;;18.30;89.80;;;;;;4985476;28;20503;-48
2022/09/14 00:46:55;;;;;;;35.10;19.37;;;18.40;89.80;;;;;;4975276;28;20516;-48
2022/09/14 00:49:26;;;;;;;29.23;18.90;;;18.40;89.80;;;;;;5002197;28;21160;-48
2022/09/14 00:52:25;;;;;;;36.73;22.40;;;18.40;89.80;;;;;;5005465;28;20518;-48
2022/09/14 00:54:59;;;;;;;35.70;21.60;;;18.40;89.80;;;;;;5001649;28;20937;-48
2022/09/14 00:57:29;;;;;;;39.00;23.20;;;18.40;89.80;;;;;;4999976;28;20488;-48
2022/09/14 00:59:56;;;;;;;32.20;20.70;;;18.40;89.80;;;;;;4986682;28;20456;-48
2022/09/14 01:02:26;;;;;;;34.87;21.63;;;18.40;89.80;;;;;;5000223;28;20461;-49
2022/09/14 01:04:53;;;;;;;42.43;22.30;;;18.40;89.80;;;;;;4999531;28;20551;-49
2022/09/14 01:07:45;;;;;;;42.13;24.00;;;18.40;89.80;;;;;;5002288;28;20484;-49
2022/09/14 01:10:26;;;;;;;44.23;23.27;;;18.40;89.80;;;;;;5002206;28;20951;-48
2022/09/14 01:13:05;;;;;;;41.73;22.73;;;18.40;89.80;;;;;;4998745;28;20467;-48
2022/09/14 01:16:11;;;;;;;47.47;22.73;;;18.40;89.80;;;;;;4978582;28;20465;-49
2022/09/14 01:18:49;;;;;;;48.70;22.47;;;18.40;89.80;;;;;;4981479;28;20467;-48
2022/09/14 01:21:32;;;;;;;35.70;22.40;;;18.30;89.80;;;;;;4999281;28;20452;-48
2022/09/14 01:24:18;;;;;;;37.47;21.30;;;18.30;89.80;;;;;;4994442;28;20480;-48
2022/09/14 01:27:00;;;;;;;49.57;23.90;;;18.30;89.80;;;;;;5002675;28;20478;-48
2022/09/14 01:29:37;;;;;;;38.93;22.73;;;18.20;89.80;;;;;;5003148;28;20496;-48
2022/09/14 01:32:16;;;;;;;55.43;26.30;;;18.20;89.80;;;;;;4982841;28;20511;-48
2022/09/14 01:34:51;;;;;;;50.67;24.57;;;18.20;89.80;;;;;;4997623;28;21512;-48
2022/09/14 01:37:23;;;;;;;58.80;26.20;;;18.20;89.80;;;;;;4984498;28;20886;-48
2022/09/14 01:40:00;;;;;;;52.47;25.37;;;18.30;89.80;;;;;;5000660;28;20893;-48
2022/09/14 01:42:28;;;;;;;43.47;24.47;;;18.30;89.80;;;;;;5002311;28;20461;-48
2022/09/14 01:45:00;;;;;;;49.23;23.37;;;18.20;89.80;;;;;;4997873;28;20522;-48
2022/09/14 01:47:38;;;;;;;47.97;25.43;;;18.30;89.80;;;;;;4983885;28;20491;-48
2022/09/14 01:50:10;;;;;;;42.67;23.07;;;18.40;89.80;;;;;;4996581;28;20524;-48
2022/09/14 01:52:48;;;;;;;40.70;22.30;;;18.30;89.80;;;;;;5000104;28;20745;-48
2022/09/14 01:55:21;;;;;;;47.10;25.57;;;18.30;89.80;;;;;;5005163;28;20492;-48
2022/09/14 01:57:54;;;;;;;47.00;25.03;;;18.30;89.80;;;;;;5004323;28;20526;-48
2022/09/14 02:00:22;;;;;;;53.83;24.60;;;18.40;89.80;;;;;;5002708;28;20910;-48
2022/09/14 02:03:03;;;;;;;46.60;24.27;;;18.30;89.80;;;;;;5006508;28;20560;-48
2022/09/14 02:05:36;;;;;;;48.80;23.87;;;18.20;89.80;;;;;;4983128;28;20472;-48
2022/09/14 02:08:03;;;;;;;68.40;26.97;;;18.20;89.80;;;;;;5005283;28;20472;-48
2022/09/14 02:10:30;;;;;;;49.07;25.80;;;18.30;89.80;;;;;;5003622;28;20464;-48
2022/09/14 02:12:57;;;;;;;44.80;24.50;;;18.30;89.80;;;;;;5009113;28;21015;-49
2022/09/14 02:15:27;;;;;;;62.63;28.03;;;18.40;89.80;;;;;;4981670;28;20505;-48
2022/09/14 02:17:54;;;;;;;50.87;26.10;;;18.40;89.80;;;;;;5002878;28;20457;-48
2022/09/14 02:20:47;;;;;;;61.20;27.30;;;18.40;89.80;;;;;;5003002;28;20476;-48
2022/09/14 02:23:14;;;;;;;52.50;23.83;;;18.40;89.80;;;;;;4985785;28;20464;-48
2022/09/14 02:25:40;;;;;;;62.30;26.47;;;18.30;89.80;;;;;;5004332;28;20501;-49
2022/09/14 02:28:08;;;;;;;55.70;26.87;;;18.30;89.80;;;;;;5004910;28;20955;-49
2022/09/14 02:30:48;;;;;;;62.40;28.60;;;18.30;89.80;;;;;;5005856;28;20464;-49
2022/09/14 02:33:42;;;;;;;75.50;27.83;;;18.40;89.80;;;;;;5006133;28;20992;-48
2022/09/14 02:36:42;;;;;;;74.17;25.63;;;18.40;89.80;;;;;;5002616;28;20523;-48
2022/09/14 02:39:17;;;;;;;54.40;26.50;;;18.40;89.80;;;;;;4976745;28;20514;-48
2022/09/14 02:42:02;;;;;;;44.07;23.00;;;18.40;89.80;;;;;;4985763;28;20463;-48
2022/09/14 02:45:11;;;;;;;50.80;23.37;;;18.40;89.80;;;;;;4988523;28;21016;-48
2022/09/14 02:48:10;;;;;;;46.60;23.47;;;18.40;89.80;;;;;;5005297;28;20948;-50
2022/09/14 02:51:05;;;;;;;40.70;20.73;;;18.40;89.80;;;;;;4980715;28;20955;-50
2022/09/14 02:53:52;;;;;;;51.40;25.00;;;18.40;89.80;;;;;;4989293;28;20523;-49
2022/09/14 02:56:20;;;;;;;49.57;23.60;;;18.40;89.80;;;;;;5000469;28;20491;-49
2022/09/14 02:58:46;;;;;;;55.57;25.00;;;18.40;89.80;;;;;;5017329;28;20503;-49
2022/09/14 03:01:20;;;;;;;61.83;25.63;;;18.40;89.80;;;;;;5003128;28;20456;-49
2022/09/14 03:03:47;;;;;;;58.77;25.03;;;18.30;89.80;;;;;;5015622;28;20961;-49
2022/09/14 03:06:13;;;;;;;47.73;23.03;;;18.30;89.80;;;;;;5017559;28;20461;-49
2022/09/14 03:08:40;;;;;;;48.67;24.13;;;18.20;89.80;;;;;;5021123;28;20472;-49
2022/09/14 03:11:07;;;;;;;65.10;25.97;;;18.10;89.80;;;;;;5018690;28;20479;-49
2022/09/14 03:13:34;;;;;;;47.67;22.53;;;18.20;89.80;;;;;;5015916;28;20460;-49
2022/09/14 03:16:09;;;;;;;46.20;22.70;;;18.20;89.80;;;;;;5016517;28;20487;-49
2022/09/14 03:18:37;;;;;;;50.03;22.70;;;18.30;89.80;;;;;;4995910;28;20563;-49
2022/09/14 03:21:09;;;;;;;59.23;23.50;;;18.30;89.80;;;;;;5015831;28;20534;-49
2022/09/14 03:23:47;;;;;;;51.50;22.73;;;18.40;89.80;;;;;;5019765;28;20456;-48
2022/09/14 03:26:20;;;;;;;51.57;22.50;;;18.30;89.80;;;;;;5015758;28;20472;-49
2022/09/14 03:28:51;;;;;;;51.97;23.60;;;18.30;89.80;;;;;;5015514;28;20468;-48
2022/09/14 03:31:18;;;;;;;55.90;22.60;;;18.20;89.80;;;;;;5016510;28;20796;-48
2022/09/14 03:33:44;;;;;;;49.37;21.37;;;18.20;89.80;;;;;;5018752;28;20700;-48
2022/09/14 03:36:14;;;;;;;54.63;24.37;;;18.20;89.80;;;;;;5001159;28;20465;-49
2022/09/14 03:38:44;;;;;;;64.00;23.90;;;18.20;89.80;;;;;;5016723;28;20460;-48
2022/09/14 03:41:12;;;;;;;47.37;21.40;;;18.30;89.80;;;;;;5014587;28;20456;-48
2022/09/14 03:43:39;;;;;;;55.70;22.13;;;18.30;89.80;;;;;;5001927;28;20464;-48
2022/09/14 03:46:08;;;;;;;61.30;22.40;;;18.30;89.80;;;;;;5018540;28;20471;-49
2022/09/14 03:48:35;;;;;;;43.23;20.17;;;18.30;89.80;;;;;;5017102;28;20537;-49
2022/09/14 03:51:03;;;;;;;40.60;20.47;;;18.20;89.80;;;;;;5015969;28;20464;-49
2022/09/14 03:53:30;;;;;;;56.13;23.97;;;18.20;89.80;;;;;;5019112;28;20485;-50
2022/09/14 03:55:57;;;;;;;44.23;21.97;;;18.20;89.80;;;;;;5020073;28;20520;-49
2022/09/14 03:58:24;;;;;;;43.23;22.90;;;18.20;89.80;;;;;;5020584;28;20487;-49
2022/09/14 04:00:51;;;;;;;47.57;24.37;;;18.10;89.80;;;;;;5018981;28;20452;-50
2022/09/14 04:03:18;;;;;;;51.60;22.00;;;18.10;89.80;;;;;;5021284;28;20476;-49
2022/09/14 04:05:54;;;;;;;54.00;22.97;;;18.10;89.80;;;;;;5021347;28;21033;-50
2022/09/14 04:08:22;;;;;;;52.40;24.83;;;18.10;89.80;;;;;;5018043;28;20940;-49
2022/09/14 04:10:48;;;;;;;47.07;23.30;;;18.10;89.80;;;;;;5008087;28;20491;-49
2022/09/14 04:13:15;;;;;;;55.77;25.57;;;18.20;89.80;;;;;;5020043;28;20464;-49
2022/09/14 04:15:42;;;;;;;55.93;24.40;;;18.20;89.80;;;;;;4999803;28;20480;-50
2022/09/14 04:18:08;;;;;;;40.33;23.10;;;18.20;89.80;;;;;;5015617;28;20456;-48
2022/09/14 04:20:35;;;;;;;46.53;22.43;;;18.20;89.80;;;;;;5001723;28;20461;-49
2022/09/14 04:23:02;;;;;;;51.43;23.70;;;18.20;89.80;;;;;;4997819;28;20460;-49
2022/09/14 04:25:28;;;;;;;48.57;23.07;;;18.30;89.80;;;;;;5015156;28;20805;-49
2022/09/14 04:27:55;;;;;;;53.27;23.73;;;18.30;89.80;;;;;;5018645;28;20535;-49
2022/09/14 04:30:41;;;;;;;44.60;21.80;;;18.30;89.80;;;;;;5019977;28;20541;-49
2022/09/14 04:33:08;;;;;;;58.83;24.00;;;18.20;89.80;;;;;;5015746;28;20966;-49
2022/09/14 04:35:36;;;;;;;60.00;23.97;;;18.30;89.80;;;;;;5018243;28;20511;-49
2022/09/14 04:38:03;;;;;;;63.97;24.13;;;18.20;89.80;;;;;;5017921;28;20461;-49
2022/09/14 04:40:30;;;;;;;63.73;23.87;;;18.20;89.80;;;;;;5019601;28;20460;-49
2022/09/14 04:42:57;;;;;;;55.10;22.93;;;18.30;89.80;;;;;;4995311;28;20462;-50
2022/09/14 04:45:23;;;;;;;61.03;25.27;;;18.30;89.80;;;;;;5016738;28;20501;-50
2022/09/14 04:47:50;;;;;;;57.90;24.40;;;18.20;89.80;;;;;;5017737;28;21012;-50
2022/09/14 04:50:16;;;;;;;58.90;24.90;;;18.20;89.80;;;;;;5017683;28;20463;-50
2022/09/14 04:52:43;;;;;;;55.13;26.80;;;18.20;89.80;;;;;;5020097;28;20463;-49
2022/09/14 04:55:10;;;;;;;64.13;25.57;;;18.20;89.80;;;;;;5015812;28;20912;-49
2022/09/14 04:57:36;;;;;;;67.67;27.97;;;18.20;89.80;;;;;;5018744;28;20856;-49
2022/09/14 05:00:03;;;;;;;68.17;26.60;;;18.20;89.80;;;;;;5020152;28;20484;-50
2022/09/14 05:02:30;;;;;;;65.57;26.47;;;18.20;89.80;;;;;;5001454;28;20464;-50
2022/09/14 05:04:57;;;;;;;67.00;25.10;;;18.20;89.80;;;;;;5016335;28;20464;-50
2022/09/14 05:07:24;;;;;;;67.40;26.70;;;18.20;89.80;;;;;;5011091;28;20473;-49
2022/09/14 05:09:50;;;;;;;70.43;27.27;;;18.20;89.80;;;;;;5013806;28;20495;-49
2022/09/14 05:12:17;;;;;;;102.13;29.40;;;18.20;89.80;;;;;;5014254;28;20456;-48
2022/09/14 05:14:44;;;;;;;65.90;26.90;;;18.20;89.80;;;;;;4999142;28;20528;-49
2022/09/14 05:17:10;;;;;;;73.70;29.37;;;18.20;89.80;;;;;;5013561;28;20464;-49
2022/09/14 05:19:37;;;;;;;76.73;27.87;;;18.30;89.80;;;;;;5013297;28;20456;-49
2022/09/14 05:22:03;;;;;;;76.50;27.50;;;18.30;89.80;;;;;;5014859;28;20460;-49
2022/09/14 05:24:30;;;;;;;62.77;25.23;;;18.30;89.80;;;;;;5013617;28;20572;-49
2022/09/14 05:26:57;;;;;;;72.07;27.10;;;18.30;89.80;;;;;;4999630;28;20466;-49
2022/09/14 05:29:28;;;;;;;80.17;26.90;;;18.40;89.80;;;;;;5013425;28;20522;-49
2022/09/14 05:31:55;;;;;;;69.77;25.10;;;18.40;89.80;;;;;;5011997;28;20496;-49
2022/09/14 05:34:21;;;;;;;85.00;27.20;;;18.40;89.80;;;;;;5013368;28;20472;-49
2022/09/14 05:36:48;;;;;;;62.10;26.33;;;18.50;89.80;;;;;;5012335;28;20496;-50
2022/09/14 05:39:15;;;;;;;72.43;24.47;;;18.40;89.80;;;;;;5010354;28;20817;-50
2022/09/14 05:41:49;;;;;;;82.83;27.00;;;18.40;89.80;;;;;;5011110;28;21035;-49
2022/09/14 05:44:15;;;;;;;74.83;23.93;;;18.40;89.80;;;;;;5015742;28;20495;-49
2022/09/14 05:46:42;;;;;;;72.27;26.27;;;18.40;89.80;;;;;;4979154;28;20535;-49
2022/09/14 05:49:09;;;;;;;61.37;25.50;;;18.40;89.80;;;;;;5013642;28;20468;-49
2022/09/14 05:51:36;;;;;;;73.77;26.40;;;18.40;89.80;;;;;;5000677;28;20469;-49
2022/09/14 05:54:08;;;;;;;69.10;26.17;;;18.40;89.80;;;;;;5010188;28;20460;-49
2022/09/14 05:56:34;;;;;;;74.33;24.33;;;18.40;89.80;;;;;;5013833;28;20496;-49
2022/09/14 05:59:01;;;;;;;86.77;28.60;;;18.40;89.80;;;;;;5017256;28;20499;-49
2022/09/14 06:01:31;;;;;;;56.97;25.40;;;18.40;89.80;;;;;;5015855;28;20492;-49
2022/09/14 06:04:01;;;;;;;71.90;25.67;;;18.40;89.80;;;;;;5015675;28;20462;-49
2022/09/14 06:06:29;;;;;;;59.27;23.50;;;18.50;89.80;;;;;;4994791;28;20499;-49
2022/09/14 06:08:56;;;;;;;60.57;23.87;;;18.40;89.80;;;;;;5000067;28;20487;-49
2022/09/14 06:11:27;;;;;;;62.40;24.87;;;18.40;89.80;;;;;;5018457;28;20464;-49
2022/09/14 06:13:55;;;;;;;66.70;27.03;;;18.40;89.80;;;;;;5016696;28;20464;-49
2022/09/14 06:16:23;;;;;;;69.23;25.93;;;18.40;89.80;;;;;;4998513;28;20528;-49
2022/09/14 06:18:50;;;;;;;88.33;28.67;;;18.30;89.80;;;;;;5020153;28;20472;-49
2022/09/14 06:21:19;;;;;;;106.80;32.57;;;18.40;89.80;;;;;;4999706;28;20452;-50
2022/09/14 06:23:47;;;;;;;99.00;30.17;;;18.40;89.80;;;;;;5014842;28;20556;-49
2022/09/14 06:26:15;;;;;;;73.37;28.00;;;18.50;89.80;;;;;;5018820;28;20479;-49
2022/09/14 06:28:42;;;;;;;75.80;26.00;;;18.50;89.80;;;;;;5013430;28;20518;-49
2022/09/14 06:31:12;;;;;;;56.10;24.20;;;18.50;89.80;;;;;;4984069;28;20534;-49
2022/09/14 06:33:43;;;;;;;77.17;27.50;;;18.50;89.80;;;;;;4994557;28;20456;-50
2022/09/14 06:36:12;;;;;;;60.67;24.53;;;18.50;89.80;;;;;;5013281;28;20488;-49
2022/09/14 06:38:40;;;;;;;65.40;24.30;;;18.50;89.80;;;;;;5012211;28;20464;-49
2022/09/14 06:41:12;;;;;;;62.27;24.50;;;18.50;89.80;;;;;;5017442;28;20460;-49
2022/09/14 06:43:41;;;;;;;63.23;24.60;;;18.50;89.80;;;;;;4998464;28;20453;-50
2022/09/14 06:46:17;;;;;;;42.97;21.40;;;18.50;89.80;;;;;;5020853;28;20480;-49
2022/09/14 06:48:45;;;;;;;52.13;21.43;;;18.60;89.80;;;;;;5000941;28;20482;-49
2022/09/14 06:51:17;;;;;;;94.30;27.70;;;18.60;89.80;;;;;;5017716;28;20464;-49
2022/09/14 06:53:45;;;;;;;130.60;30.10;;;18.50;89.80;;;;;;5021275;28;20452;-49
2022/09/14 06:56:12;;;;;;;51.00;20.00;;;18.50;89.80;;;;;;5016836;28;21147;-49
2022/09/14 06:58:40;;;;;;;146.77;35.90;;;18.40;89.80;;;;;;5018118;28;20508;-49
2022/09/14 07:01:10;;;;;;;109.90;29.03;;;18.40;89.80;;;;;;5002548;28;20460;-49
2022/09/14 07:03:38;;;;;;;197.77;41.43;;;18.40;89.80;;;;;;5018218;28;20977;-49
2022/09/14 07:06:09;;;;;;;65.37;22.73;;;18.40;89.80;;;;;;5015758;28;20456;-49
2022/09/14 07:08:37;;;;;;;181.50;42.03;;;18.50;89.80;;;;;;5006024;28;20499;-49
2022/09/14 07:11:06;;;;;;;58.10;23.00;;;18.50;89.80;;;;;;5009134;28;20484;-51
2022/09/14 07:13:33;;;;;;;55.40;22.30;;;18.50;89.80;;;;;;5004563;28;20551;-51
2022/09/14 07:16:00;;;;;;;66.70;23.87;;;18.50;89.80;;;;;;4990786;28;20538;-51
2022/09/14 07:18:31;;;;;;;36.40;17.53;;;18.50;89.80;;;;;;5003428;28;20461;-48
2022/09/14 07:21:07;;;;;;;59.03;18.53;;;18.50;89.80;;;;;;5003954;28;20463;-49
2022/09/14 07:23:40;;;;;;;30.60;16.40;;;18.50;89.80;;;;;;5006727;28;20722;-49
2022/09/14 07:26:09;;;;;;;106.80;27.30;;;18.60;89.80;;;;;;5006225;28;21313;-49
2022/09/14 07:28:36;;;;;;;65.17;19.70;;;18.60;89.80;;;;;;4986010;28;20905;-48
2022/09/14 07:31:05;;;;;;;198.63;37.47;;;18.50;89.80;;;;;;4989861;28;20484;-49
2022/09/14 07:33:32;;;;;;;59.97;22.57;;;18.50;89.80;;;;;;4985054;28;20954;-48
2022/09/14 07:36:10;;;;;;;34.53;16.47;;;18.50;89.80;;;;;;4999693;28;20509;-48
2022/09/14 07:38:36;;;;;;;71.73;22.03;;;18.60;89.80;;;;;;5001357;28;20461;-48
2022/09/14 07:41:20;;;;;;;55.00;17.13;;;18.60;89.80;;;;;;4981462;28;20954;-49
2022/09/14 07:43:49;;;;;;;76.80;22.37;;;18.60;89.80;;;;;;5003215;28;20520;-48
2022/09/14 07:46:16;;;;;;;27.90;14.30;;;18.60;89.80;;;;;;4998219;28;20492;-49
2022/09/14 07:48:43;;;;;;;117.87;29.00;;;18.70;89.80;;;;;;4998247;28;21040;-49
2022/09/14 07:51:10;;;;;;;39.93;15.83;;;18.70;89.80;;;;;;4979060;28;20940;-49
2022/09/14 07:53:41;;;;;;;106.50;25.40;;;18.70;89.80;;;;;;4997225;28;20919;-48
2022/09/14 07:56:09;;;;;;;30.87;15.47;;;18.70;89.80;;;;;;5003913;28;20528;-49
2022/09/14 07:58:36;;;;;;;69.60;20.70;;;18.70;89.80;;;;;;4998862;28;20480;-48
2022/09/14 08:01:10;;;;;;;45.23;17.47;;;18.70;89.80;;;;;;5001366;28;20936;-49
2022/09/14 08:03:44;;;;;;;23.53;13.53;;;18.70;89.80;;;;;;4997060;28;20464;-48
2022/09/14 08:06:20;;;;;;;17.93;11.93;;;18.80;89.80;;;;;;5002213;28;20526;-48
2022/09/14 08:08:49;;;;;;;18.27;11.17;;;18.80;89.80;;;;;;4999329;28;20921;-49
2022/09/14 08:11:19;;;;;;;20.47;11.23;;;18.90;89.80;;;;;;4996153;28;20471;-49
2022/09/14 08:13:50;;;;;;;15.73;10.50;;;18.90;89.80;;;;;;4985576;28;21044;-48
2022/09/14 08:16:18;;;;;;;27.20;11.90;;;18.90;89.80;;;;;;5002374;28;20495;-48
2022/09/14 08:18:45;;;;;;;19.57;11.80;;;18.80;89.80;;;;;;4983716;28;21043;-48
2022/09/14 08:21:16;;;;;;;31.13;12.90;;;18.70;89.80;;;;;;5000732;28;21713;-49
2022/09/14 08:23:43;;;;;;;23.53;12.63;;;18.80;89.80;;;;;;4984157;28;20522;-48
2022/09/14 08:26:12;;;;;;;27.13;12.90;;;18.80;89.80;;;;;;4999691;28;20552;-49
2022/09/14 08:28:39;;;;;;;21.43;12.57;;;18.80;89.80;;;;;;4984949;28;21269;-48
2022/09/14 08:31:10;;;;;;;19.50;11.87;;;18.80;89.80;;;;;;4998047;28;20469;-48
2022/09/14 08:33:39;;;;;;;20.23;12.13;;;18.80;89.80;;;;;;4998985;28;20481;-48
2022/09/14 08:36:07;;;;;;;23.70;12.77;;;18.80;89.80;;;;;;4983534;28;20531;-48
2022/09/14 08:38:34;;;;;;;24.97;13.20;;;18.90;89.80;;;;;;4997061;28;21119;-48
2022/09/14 08:41:42;;;;;;;29.50;15.00;;;18.90;89.80;;;;;;5003009;28;20894;-49
2022/09/14 08:44:17;;;;;;;23.50;13.30;;;19.00;89.80;;;;;;4980506;28;20518;-48
2022/09/14 08:46:50;;;;;;;23.73;13.50;;;19.00;89.80;;;;;;4999991;28;20500;-48
2022/09/14 08:49:32;;;;;;;25.70;13.50;;;19.00;89.80;;;;;;4995877;28;20503;-48
2022/09/14 08:51:59;;;;;;;20.27;11.60;;;19.00;89.80;;;;;;4982306;28;20494;-48
2022/09/14 08:54:25;;;;;;;18.73;12.80;;;19.00;89.80;;;;;;4978096;28;20945;-48
2022/09/14 08:57:05;;;;;;;15.80;11.30;;;19.10;89.80;;;;;;4982587;28;20524;-48
2022/09/14 08:59:40;;;;;;;16.90;10.23;;;19.10;89.80;;;;;;4995391;28;20501;-48
2022/09/14 09:02:22;;;;;;;17.27;11.27;;;19.10;89.80;;;;;;4996524;28;20995;-48
2022/09/14 09:04:57;;;;;;;12.80;9.80;;;19.10;89.80;;;;;;4993729;28;20452;-48
2022/09/14 09:07:29;;;;;;;14.50;10.27;;;19.10;89.80;;;;;;4996259;28;20485;-48
2022/09/14 09:09:57;;;;;;;15.17;11.20;;;19.10;89.80;;;;;;4993659;28;20587;-48
2022/09/14 09:12:55;;;;;;;16.40;11.23;;;19.10;89.80;;;;;;5000770;28;20468;-48
2022/09/14 09:15:23;;;;;;;17.03;11.40;;;19.10;89.80;;;;;;4983543;28;20910;-48
2022/09/14 09:17:57;;;;;;;17.87;11.00;;;19.20;89.80;;;;;;4985967;28;21045;-48
2022/09/14 09:20:36;;;;;;;11.60;10.13;;;19.20;89.80;;;;;;4998963;28;20873;-48
2022/09/14 09:23:13;;;;;;;13.83;11.10;;;19.20;89.80;;;;;;4981543;28;20456;-48
2022/09/14 09:25:51;;;;;;;16.10;11.67;;;19.20;89.80;;;;;;5002520;28;20895;-48
2022/09/14 09:28:18;;;;;;;24.97;13.13;;;19.20;89.80;;;;;;5003008;28;20456;-48
2022/09/14 09:30:45;;;;;;;15.60;10.60;;;19.20;89.80;;;;;;4999962;28;20498;-48
2022/09/14 09:33:16;;;;;;;17.03;11.77;;;19.20;89.80;;;;;;5002292;28;20464;-48
2022/09/14 09:35:43;;;;;;;15.73;11.07;;;19.30;89.80;;;;;;4984552;28;20925;-48
2022/09/14 09:38:23;;;;;;;16.50;11.60;;;19.30;89.80;;;;;;4982211;28;20906;-48
2022/09/14 09:41:20;;;;;;;13.60;11.33;;;19.30;89.80;;;;;;5001315;28;20492;-48
2022/09/14 09:44:02;;;;;;;19.63;11.00;;;19.30;89.80;;;;;;4999123;28;20464;-48
2022/09/14 09:46:33;;;;;;;14.40;10.33;;;19.30;89.80;;;;;;5001438;28;20860;-48
2022/09/14 09:49:14;;;;;;;16.37;11.07;;;19.30;89.80;;;;;;4996807;28;20900;-49
2022/09/14 09:51:41;;;;;;;17.83;10.20;;;19.30;89.80;;;;;;4994204;28;20502;-48
2022/09/14 09:54:23;;;;;;;17.13;10.97;;;19.30;89.80;;;;;;5000980;28;20488;-48
2022/09/14 09:57:04;;;;;;;14.37;9.10;;;19.30;89.80;;;;;;4996804;28;20563;-49
2022/09/14 09:59:41;;;;;;;12.50;9.90;;;19.30;89.80;;;;;;4981971;28;20546;-49
2022/09/14 10:02:28;;;;;;;10.27;9.00;;;19.40;89.80;;;;;;4995936;28;20562;-49
2022/09/14 10:05:03;;;;;;;13.50;8.93;;;19.40;89.80;;;;;;4995504;28;20889;-48
2022/09/14 10:07:33;;;;;;;11.13;9.50;;;19.40;89.80;;;;;;4998182;28;20487;-48
2022/09/14 10:10:04;;;;;;;11.50;9.50;;;19.40;89.80;;;;;;4999179;28;20495;-48
2022/09/14 10:12:32;;;;;;;11.47;8.13;;;19.50;89.80;;;;;;4995538;28;20476;-48
2022/09/14 10:15:20;;;;;;;11.03;8.87;;;19.50;89.80;;;;;;4999093;28;20468;-48
2022/09/14 10:18:07;;;;;;;12.77;9.47;;;19.50;89.80;;;;;;5000805;28;20555;-48
2022/09/14 10:20:37;;;;;;;11.70;8.60;;;19.60;89.80;;;;;;4990086;28;20460;-48
2022/09/14 10:23:19;;;;;;;13.33;8.03;;;19.60;89.80;;;;;;5003712;28;20456;-49
2022/09/14 10:25:52;;;;;;;11.40;8.43;;;19.60;89.80;;;;;;5005437;28;20494;-50
2022/09/14 10:28:27;;;;;;;11.33;8.93;;;19.60;89.80;;;;;;4986905;28;20553;-50
2022/09/14 10:31:05;;;;;;;12.40;9.87;;;19.60;89.80;;;;;;5007551;28;20444;-50
2022/09/14 10:33:34;;;;;;;17.23;11.17;;;19.60;89.80;;;;;;4988068;28;20892;-50
2022/09/14 10:36:22;;;;;;;14.80;10.10;;;19.60;89.80;;;;;;5005607;28;20547;-50
2022/09/14 10:38:51;;;;;;;13.50;9.87;;;19.70;89.80;;;;;;5004585;28;20464;-50
2022/09/14 10:41:34;;;;;;;13.37;10.00;;;19.70;89.80;;;;;;5006269;28;20914;-48
2022/09/14 10:44:21;;;;;;;13.53;9.77;;;19.60;89.80;;;;;;5017701;28;20488;-48
2022/09/14 10:47:14;;;;;;;13.43;9.97;;;19.60;89.80;;;;;;5004584;28;20491;-50
2022/09/14 10:50:05;;;;;;;15.00;10.10;;;19.70;89.80;;;;;;4974782;28;20530;-50
2022/09/14 10:53:12;;;;;;;10.80;9.70;;;19.70;89.80;;;;;;5004051;28;20550;-47
2022/09/14 10:55:59;;;;;;;14.43;9.73;;;19.70;89.80;;;;;;4998032;28;20456;-47
2022/09/14 10:58:46;;;;;;;15.50;10.50;;;19.70;89.80;;;;;;5000956;28;20949;-48
2022/09/14 11:01:13;;;;;;;15.30;10.27;;;19.70;89.80;;;;;;5003701;28;20539;-47
2022/09/14 11:04:26;;;;;;;14.30;11.07;;;19.70;89.80;;;;;;5004884;28;20460;-47
2022/09/14 11:07:16;;;;;;;16.20;11.30;;;19.70;89.80;;;;;;5004218;28;20511;-47
2022/09/14 11:09:56;;;;;;;19.17;11.17;;;19.70;89.80;;;;;;5001300;28;20499;-47
2022/09/14 11:12:25;;;;;;;14.20;10.60;;;19.70;89.80;;;;;;5001657;28;20496;-47
2022/09/14 11:15:27;;;;;;;13.87;11.93;;;19.70;89.80;;;;;;5001059;28;20511;-48
2022/09/14 11:18:26;;;;;;;14.47;11.00;;;19.80;89.80;;;;;;4984855;28;20666;-47
2022/09/14 11:21:22;;;;;;;14.90;10.10;;;19.80;89.80;;;;;;4976756;28;21048;-48
2022/09/14 11:24:01;;;;;;;11.20;9.63;;;19.80;89.80;;;;;;5000963;28;20452;-48
2022/09/14 11:26:57;;;;;;;12.53;10.57;;;19.80;89.80;;;;;;5006100;28;20496;-50
2022/09/14 11:29:40;;;;;;;16.90;11.83;;;19.80;89.80;;;;;;4998159;28;20511;-50
2022/09/14 11:32:31;;;;;;;15.60;10.60;;;19.80;89.80;;;;;;4991568;28;20534;-50
2022/09/14 11:35:16;;;;;;;19.37;13.00;;;19.80;89.80;;;;;;5001251;28;20870;-50
2022/09/14 11:37:52;;;;;;;21.70;12.40;;;19.80;89.80;;;;;;4986648;28;20493;-50
2022/09/14 11:40:31;;;;;;;18.40;13.23;;;19.90;89.80;;;;;;4981736;28;20916;-50
2022/09/14 11:43:27;;;;;;;18.37;13.47;;;19.90;89.80;;;;;;5004781;28;20448;-50
2022/09/14 11:46:06;;;;;;;24.40;15.80;;;19.90;89.80;;;;;;4989022;28;20864;-50
2022/09/14 11:48:46;;;;;;;27.70;15.03;;;19.90;89.80;;;;;;4989429;28;20735;-48
2022/09/14 11:51:19;;;;;;;18.80;13.40;;;20.00;89.80;;;;;;5010184;28;20515;-48
2022/09/14 11:53:46;;;;;;;20.90;13.53;;;20.00;89.80;;;;;;5000008;28;20461;-48
2022/09/14 11:56:26;;;;;;;19.77;14.30;;;20.00;89.80;;;;;;4999556;28;20914;-48
2022/09/14 11:59:03;;;;;;;21.03;13.90;;;20.00;89.80;;;;;;5016780;28;20460;-49
2022/09/14 12:01:35;;;;;;;19.57;13.07;;;20.00;89.80;;;;;;4998692;28;20893;-48
2022/09/14 12:04:11;;;;;;;23.57;14.20;;;20.10;89.80;;;;;;5017171;28;20467;-48
2022/09/14 12:06:42;;;;;;;21.07;14.53;;;20.10;89.80;;;;;;5017428;28;20463;-49
2022/09/14 12:09:21;;;;;;;18.60;14.10;;;20.10;89.80;;;;;;4997500;28;20480;-48
2022/09/14 12:11:53;;;;;;;21.83;14.00;;;20.20;89.80;;;;;;5010316;28;20520;-49
2022/09/14 12:14:23;;;;;;;19.50;13.17;;;20.20;89.80;;;;;;4980828;28;20995;-48
2022/09/14 12:17:25;;;;;;;20.67;14.30;;;20.20;89.80;;;;;;4996742;28;20507;-49
2022/09/14 12:20:30;;;;;;;22.83;13.60;;;20.20;89.80;;;;;;4996538;28;20560;-49
2022/09/14 12:23:26;;;;;;;17.63;12.40;;;20.30;89.80;;;;;;4978873;28;20511;-48
2022/09/14 12:26:03;;;;;;;20.17;13.83;;;20.30;89.80;;;;;;4981115;28;20449;-49
2022/09/14 12:28:39;;;;;;;19.97;13.17;;;20.40;89.80;;;;;;5000527;28;20539;-48
2022/09/14 12:31:11;;;;;;;22.10;13.73;;;20.40;89.80;;;;;;5003166;28;20554;-48
2022/09/14 12:33:40;;;;;;;22.50;14.07;;;20.40;89.80;;;;;;5003150;28;20459;-49
2022/09/14 12:36:36;;;;;;;23.83;14.30;;;20.40;89.80;;;;;;5001140;28;20499;-48
2022/09/14 12:39:21;;;;;;;23.63;14.70;;;20.40;89.80;;;;;;4993701;28;20834;-48
2022/09/14 12:41:50;;;;;;;20.70;14.37;;;20.40;89.80;;;;;;4994754;28;20459;-48
2022/09/14 12:44:42;;;;;;;23.77;14.27;;;20.40;89.80;;;;;;5000015;28;20516;-50
2022/09/14 12:47:23;;;;;;;21.17;14.00;;;20.50;89.80;;;;;;4998318;28;20476;-50
2022/09/14 12:50:04;;;;;;;21.27;15.53;;;20.50;89.80;;;;;;4995163;28;20472;-50
2022/09/14 12:52:49;;;;;;;21.73;14.83;;;20.50;89.80;;;;;;5000596;28;20460;-50
2022/09/14 12:55:58;;;;;;;22.37;14.67;;;20.50;89.80;;;;;;5002975;28;21126;-49
2022/09/14 12:58:42;;;;;;;23.37;15.27;;;20.50;89.80;;;;;;4988387;28;20598;-49
2022/09/14 13:01:45;;;;;;;23.30;14.40;;;20.50;89.80;;;;;;4989019;28;20465;-50
2022/09/14 13:04:23;;;;;;;23.77;15.07;;;20.50;89.80;;;;;;4998256;28;20459;-50